sensor_id;sensor_type;location;lat;lon;timestamp;pressure;altitude;pressure_sealevel;temperature;humidity
33404;BME280;19751;40.274;18.268;2023-06-24T00:01:00;100752.97;;;26.84;100.00
33404;BME280;19751;40.274;18.268;2023-06-24T00:03:25;100754.06;;;26.83;100.00
33404;BME280;19751;40.274;18.268;2023-06-24T00:05:51;100753.00;;;26.78;100.00
33404;BME280;19751;40.274;18.268;2023-06-24T00:08:16;100747.06;;;26.71;100.00
33404;BME280;19751;40.274;18.268;2023-06-24T00:10:48;100750.91;;;26.70;100.00
33404;BME280;19751;40.274;18.268;2023-06-24T00:13:17;100745.63;;;26.74;100.00
33404;BME280;19751;40.274;18.268;2023-06-24T00:15:43;100741.53;;;26.71;100.00
33404;BME280;19751;40.274;18.268;2023-06-24T00:18:12;100746.03;;;26.62;100.00
33404;BME280;19751;40.274;18.268;2023-06-24T00:20:38;100739.47;;;26.58;100.00
33404;BME280;19751;40.274;18.268;2023-06-24T00:23:03;100743.91;;;26.59;100.00
33404;BME280;19751;40.274;18.268;2023-06-24T00:25:30;100733.91;;;26.63;100.00
33404;BME280;19751;40.274;18.268;2023-06-24T00:27:55;100729.69;;;26.66;100.00
33404;BME280;19751;40.274;18.268;2023-06-24T00:30:22;100726.72;;;26.62;100.00
33404;BME280;19751;40.274;18.268;2023-06-24T00:32:48;100733.94;;;26.58;100.00
33404;BME280;19751;40.274;18.268;2023-06-24T00:35:13;100726.28;;;26.55;100.00
33404;BME280;19751;40.274;18.268;2023-06-24T00:37:39;100736.50;;;26.55;100.00
33404;BME280;19751;40.274;18.268;2023-06-24T00:40:06;100730.13;;;26.54;100.00
33404;BME280;19751;40.274;18.268;2023-06-24T00:42:34;100721.34;;;26.52;100.00
33404;BME280;19751;40.274;18.268;2023-06-24T00:45:05;100726.31;;;26.50;100.00
33404;BME280;19751;40.274;18.268;2023-06-24T00:47:34;100735.16;;;26.52;100.00
33404;BME280;19751;40.274;18.268;2023-06-24T00:49:59;100727.09;;;26.56;100.00
33404;BME280;19751;40.274;18.268;2023-06-24T00:52:25;100732.31;;;26.57;100.00
33404;BME280;19751;40.274;18.268;2023-06-24T00:54:50;100720.69;;;26.60;100.00
33404;BME280;19751;40.274;18.268;2023-06-24T00:57:17;100721.66;;;26.69;100.00
33404;BME280;19751;40.274;18.268;2023-06-24T00:59:48;100716.59;;;26.76;100.00
33404;BME280;19751;40.274;18.268;2023-06-24T01:02:20;100711.06;;;26.76;100.00
33404;BME280;19751;40.274;18.268;2023-06-24T01:04:48;100705.00;;;26.74;100.00
33404;BME280;19751;40.274;18.268;2023-06-24T01:07:16;100701.63;;;26.77;100.00
33404;BME280;19751;40.274;18.268;2023-06-24T01:09:43;100697.81;;;26.73;100.00
33404;BME280;19751;40.274;18.268;2023-06-24T01:12:09;100687.91;;;26.72;100.00
33404;BME280;19751;40.274;18.268;2023-06-24T01:14:35;100694.84;;;26.70;100.00
33404;BME280;19751;40.274;18.268;2023-06-24T01:17:19;100693.50;;;26.67;100.00
33404;BME280;19751;40.274;18.268;2023-06-24T01:25:59;100717.84;;;26.65;100.00
33404;BME280;19751;40.274;18.268;2023-06-24T01:37:00;100713.06;;;26.52;100.00
33404;BME280;19751;40.274;18.268;2023-06-24T01:39:33;100725.50;;;26.49;100.00
33404;BME280;19751;40.274;18.268;2023-06-24T01:42:11;100729.69;;;26.47;100.00
33404;BME280;19751;40.274;18.268;2023-06-24T01:44:39;100726.41;;;26.45;100.00
33404;BME280;19751;40.274;18.268;2023-06-24T01:47:07;100728.97;;;26.36;100.00
33404;BME280;19751;40.274;18.268;2023-06-24T01:49:38;100721.88;;;26.30;100.00
33404;BME280;19751;40.274;18.268;2023-06-24T01:52:08;100730.44;;;26.28;100.00
33404;BME280;19751;40.274;18.268;2023-06-24T01:54:35;100736.78;;;26.29;100.00
33404;BME280;19751;40.274;18.268;2023-06-24T01:57:03;100740.97;;;26.26;100.00
33404;BME280;19751;40.274;18.268;2023-06-24T01:59:32;100748.19;;;26.22;100.00
33404;BME280;19751;40.274;18.268;2023-06-24T02:02:00;100742.50;;;26.14;100.00
33404;BME280;19751;40.274;18.268;2023-06-24T02:04:28;100752.47;;;26.10;100.00
33404;BME280;19751;40.274;18.268;2023-06-24T02:07:01;100747.28;;;26.03;100.00
33404;BME280;19751;40.274;18.268;2023-06-24T02:09:28;100749.53;;;26.01;100.00
33404;BME280;19751;40.274;18.268;2023-06-24T02:11:57;100758.38;;;25.98;100.00
33404;BME280;19751;40.274;18.268;2023-06-24T02:14:25;100745.41;;;25.98;100.00
33404;BME280;19751;40.274;18.268;2023-06-24T02:16:53;100753.94;;;26.02;100.00
33404;BME280;19751;40.274;18.268;2023-06-24T02:19:28;100761.03;;;26.08;100.00
33404;BME280;19751;40.274;18.268;2023-06-24T02:21:56;100759.38;;;26.07;100.00
33404;BME280;19751;40.274;18.268;2023-06-24T02:24:23;100772.13;;;26.03;100.00
33404;BME280;19751;40.274;18.268;2023-06-24T02:26:50;100780.16;;;25.99;100.00
33404;BME280;19751;40.274;18.268;2023-06-24T02:29:16;100770.88;;;25.90;100.00
33404;BME280;19751;40.274;18.268;2023-06-24T02:31:43;100783.09;;;25.84;100.00
33404;BME280;19751;40.274;18.268;2023-06-24T02:34:08;100782.56;;;25.82;100.00
33404;BME280;19751;40.274;18.268;2023-06-24T02:36:34;100779.28;;;25.80;100.00
33404;BME280;19751;40.274;18.268;2023-06-24T02:39:00;100782.03;;;25.80;100.00
33404;BME280;19751;40.274;18.268;2023-06-24T02:41:26;100783.13;;;25.79;100.00
33404;BME280;19751;40.274;18.268;2023-06-24T02:43:51;100778.44;;;25.74;100.00
33404;BME280;19751;40.274;18.268;2023-06-24T02:46:17;100770.53;;;25.63;100.00
33404;BME280;19751;40.274;18.268;2023-06-24T02:48:45;100779.16;;;25.56;100.00
33404;BME280;19751;40.274;18.268;2023-06-24T02:51:11;100787.44;;;25.56;100.00
33404;BME280;19751;40.274;18.268;2023-06-24T02:53:38;100783.63;;;25.52;100.00
33404;BME280;19751;40.274;18.268;2023-06-24T02:56:05;100783.38;;;25.48;100.00
33404;BME280;19751;40.274;18.268;2023-06-24T02:58:33;100781.78;;;25.42;100.00
33404;BME280;19751;40.274;18.268;2023-06-24T03:01:03;100790.31;;;25.41;100.00
33404;BME280;19751;40.274;18.268;2023-06-24T03:03:32;100791.44;;;25.40;100.00
33404;BME280;19751;40.274;18.268;2023-06-24T03:05:58;100790.34;;;25.36;100.00
33404;BME280;19751;40.274;18.268;2023-06-24T03:08:25;100806.34;;;25.34;100.00
33404;BME280;19751;40.274;18.268;2023-06-24T03:10:55;100803.38;;;25.30;100.00
33404;BME280;19751;40.274;18.268;2023-06-24T03:13:21;100809.72;;;25.25;100.00
33404;BME280;19751;40.274;18.268;2023-06-24T03:15:47;100808.06;;;25.24;100.00
33404;BME280;19751;40.274;18.268;2023-06-24T03:18:12;100808.88;;;25.30;100.00
33404;BME280;19751;40.274;18.268;2023-06-24T03:20:38;100802.78;;;25.33;100.00
33404;BME280;19751;40.274;18.268;2023-06-24T03:23:07;100811.28;;;25.37;100.00
33404;BME280;19751;40.274;18.268;2023-06-24T03:25:34;100812.41;;;25.36;100.00
33404;BME280;19751;40.274;18.268;2023-06-24T03:28:00;100796.41;;;25.38;100.00
33404;BME280;19751;40.274;18.268;2023-06-24T03:30:29;100791.13;;;25.41;100.00
33404;BME280;19751;40.274;18.268;2023-06-24T03:32:55;100780.66;;;25.43;100.00
33404;BME280;19751;40.274;18.268;2023-06-24T03:35:21;100778.75;;;25.39;100.00
33404;BME280;19751;40.274;18.268;2023-06-24T03:37:48;100782.34;;;25.39;100.00
33404;BME280;19751;40.274;18.268;2023-06-24T03:40:13;100788.09;;;25.43;100.00
33404;BME280;19751;40.274;18.268;2023-06-24T03:42:39;100791.34;;;25.50;100.00
33404;BME280;19751;40.274;18.268;2023-06-24T03:45:05;100789.41;;;25.50;100.00
33404;BME280;19751;40.274;18.268;2023-06-24T03:47:30;100790.53;;;25.49;100.00
33404;BME280;19751;40.274;18.268;2023-06-24T03:49:56;100783.31;;;25.53;100.00
33404;BME280;19751;40.274;18.268;2023-06-24T03:52:23;100784.97;;;25.54;100.00
33404;BME280;19751;40.274;18.268;2023-06-24T03:54:48;100787.97;;;25.58;100.00
33404;BME280;19751;40.274;18.268;2023-06-24T03:57:14;100795.66;;;25.61;100.00
33404;BME280;19751;40.274;18.268;2023-06-24T03:59:40;100800.06;;;25.62;100.00
33404;BME280;19751;40.274;18.268;2023-06-24T04:02:06;100800.03;;;25.67;100.00
33404;BME280;19751;40.274;18.268;2023-06-24T04:04:35;100812.16;;;25.71;100.00
33404;BME280;19751;40.274;18.268;2023-06-24T04:07:01;100818.75;;;25.75;100.00
33404;BME280;19751;40.274;18.268;2023-06-24T04:09:26;100816.47;;;25.83;100.00
33404;BME280;19751;40.274;18.268;2023-06-24T04:11:52;100823.06;;;25.87;100.00
33404;BME280;19751;40.274;18.268;2023-06-24T04:14:18;100830.22;;;25.88;100.00
33404;BME280;19751;40.274;18.268;2023-06-24T04:16:43;100828.31;;;25.88;100.00
33404;BME280;19751;40.274;18.268;2023-06-24T04:19:09;100834.03;;;25.92;100.00
33404;BME280;19751;40.274;18.268;2023-06-24T04:21:34;100830.78;;;25.90;100.00
33404;BME280;19751;40.274;18.268;2023-06-24T04:24:00;100820.84;;;25.89;100.00
33404;BME280;19751;40.274;18.268;2023-06-24T04:26:26;100816.97;;;25.90;100.00
33404;BME280;19751;40.274;18.268;2023-06-24T04:28:51;100811.16;;;25.91;100.00
33404;BME280;19751;40.274;18.268;2023-06-24T04:31:17;100810.34;;;25.91;100.00
33404;BME280;19751;40.274;18.268;2023-06-24T04:33:42;100812.81;;;25.92;100.00
33404;BME280;19751;40.274;18.268;2023-06-24T04:36:08;100804.00;;;25.90;100.00
33404;BME280;19751;40.274;18.268;2023-06-24T04:38:34;100805.38;;;25.88;100.00
33404;BME280;19751;40.274;18.268;2023-06-24T04:41:00;100801.53;;;25.89;100.00
33404;BME280;19751;40.274;18.268;2023-06-24T04:43:26;100803.69;;;25.92;100.00
33404;BME280;19751;40.274;18.268;2023-06-24T04:45:53;100804.75;;;25.96;100.00
33404;BME280;19751;40.274;18.268;2023-06-24T04:48:22;100798.91;;;26.02;100.00
33404;BME280;19751;40.274;18.268;2023-06-24T04:50:48;100819.00;;;26.08;100.00
33404;BME280;19751;40.274;18.268;2023-06-24T04:53:13;100822.53;;;26.14;100.00
33404;BME280;19751;40.274;18.268;2023-06-24T04:55:39;100823.31;;;26.19;100.00
33404;BME280;19751;40.274;18.268;2023-06-24T04:58:05;100819.66;;;26.24;100.00
33404;BME280;19751;40.274;18.268;2023-06-24T05:00:30;100808.03;;;26.27;100.00
33404;BME280;19751;40.274;18.268;2023-06-24T05:02:56;100797.25;;;26.31;100.00
33404;BME280;19751;40.274;18.268;2023-06-24T05:05:21;100780.59;;;26.36;100.00
33404;BME280;19751;40.274;18.268;2023-06-24T05:07:47;100756.00;;;26.39;100.00
33404;BME280;19751;40.274;18.268;2023-06-24T05:10:13;100739.19;;;26.36;100.00
33404;BME280;19751;40.274;18.268;2023-06-24T05:12:39;100723.84;;;26.24;100.00
33404;BME280;19751;40.274;18.268;2023-06-24T05:15:05;100714.00;;;26.18;100.00
33404;BME280;19751;40.274;18.268;2023-06-24T05:17:31;100702.66;;;26.20;100.00
33404;BME280;19751;40.274;18.268;2023-06-24T05:19:57;100687.44;;;26.22;100.00
33404;BME280;19751;40.274;18.268;2023-06-24T05:22:23;100679.16;;;26.22;100.00
33404;BME280;19751;40.274;18.268;2023-06-24T05:24:48;100660.34;;;26.24;100.00
33404;BME280;19751;40.274;18.268;2023-06-24T05:27:14;100662.53;;;26.27;100.00
33404;BME280;19751;40.274;18.268;2023-06-24T05:29:39;100663.66;;;26.26;100.00
33404;BME280;19751;40.274;18.268;2023-06-24T05:32:05;100677.75;;;26.25;100.00
33404;BME280;19751;40.274;18.268;2023-06-24T05:34:31;100703.19;;;26.22;100.00
33404;BME280;19751;40.274;18.268;2023-06-24T05:36:56;100760.88;;;26.23;100.00
33404;BME280;19751;40.274;18.268;2023-06-24T05:39:22;100808.44;;;26.15;100.00
33404;BME280;19751;40.274;18.268;2023-06-24T05:41:48;100829.84;;;25.99;100.00
33404;BME280;19751;40.274;18.268;2023-06-24T05:44:14;100851.47;;;25.92;100.00
33404;BME280;19751;40.274;18.268;2023-06-24T05:46:39;100838.94;;;26.00;100.00
33404;BME280;19751;40.274;18.268;2023-06-24T05:49:05;100825.06;;;26.10;100.00
33404;BME280;19751;40.274;18.268;2023-06-24T05:51:31;100856.44;;;26.19;100.00
33404;BME280;19751;40.274;18.268;2023-06-24T05:53:56;100866.31;;;26.25;100.00
33404;BME280;19751;40.274;18.268;2023-06-24T05:56:23;100866.03;;;26.27;100.00
33404;BME280;19751;40.274;18.268;2023-06-24T05:58:48;100828.13;;;26.33;100.00
33404;BME280;19751;40.274;18.268;2023-06-24T06:01:14;100822.50;;;26.43;100.00
33404;BME280;19751;40.274;18.268;2023-06-24T06:03:40;100824.66;;;26.51;100.00
33404;BME280;19751;40.274;18.268;2023-06-24T06:06:06;100838.41;;;26.56;100.00
33404;BME280;19751;40.274;18.268;2023-06-24T06:08:32;100839.97;;;26.62;100.00
33404;BME280;19751;40.274;18.268;2023-06-24T06:10:59;100822.22;;;26.68;100.00
33404;BME280;19751;40.274;18.268;2023-06-24T06:13:25;100825.75;;;26.74;100.00
33404;BME280;19751;40.274;18.268;2023-06-24T06:15:51;100836.72;;;26.79;100.00
33404;BME280;19751;40.274;18.268;2023-06-24T06:18:16;100864.59;;;26.83;100.00
33404;BME280;19751;40.274;18.268;2023-06-24T06:20:42;100885.53;;;26.89;100.00
33404;BME280;19751;40.274;18.268;2023-06-24T06:23:07;100882.63;;;26.99;100.00
33404;BME280;19751;40.274;18.268;2023-06-24T06:25:33;100878.16;;;27.03;100.00
33404;BME280;19751;40.274;18.268;2023-06-24T06:27:59;100866.81;;;27.05;100.00
33404;BME280;19751;40.274;18.268;2023-06-24T06:30:24;100868.16;;;27.07;100.00
33404;BME280;19751;40.274;18.268;2023-06-24T06:32:50;100885.00;;;27.11;100.00
33404;BME280;19751;40.274;18.268;2023-06-24T06:35:16;100900.19;;;27.13;100.00
33404;BME280;19751;40.274;18.268;2023-06-24T06:37:43;100895.72;;;27.17;100.00
33404;BME280;19751;40.274;18.268;2023-06-24T06:40:11;100903.38;;;27.20;100.00
33404;BME280;19751;40.274;18.268;2023-06-24T06:42:37;100913.59;;;27.25;100.00
33404;BME280;19751;40.274;18.268;2023-06-24T06:45:03;100915.72;;;27.28;100.00
33404;BME280;19751;40.274;18.268;2023-06-24T06:47:29;100911.03;;;27.29;100.00
33404;BME280;19751;40.274;18.268;2023-06-24T06:49:54;100905.50;;;27.29;100.00
33404;BME280;19751;40.274;18.268;2023-06-24T06:52:20;100897.19;;;27.29;100.00
33404;BME280;19751;40.274;18.268;2023-06-24T06:54:45;100898.88;;;27.30;100.00
33404;BME280;19751;40.274;18.268;2023-06-24T06:57:11;100894.44;;;27.29;100.00
33404;BME280;19751;40.274;18.268;2023-06-24T06:59:36;100900.81;;;27.29;100.00
33404;BME280;19751;40.274;18.268;2023-06-24T07:02:02;100902.44;;;27.30;100.00
33404;BME280;19751;40.274;18.268;2023-06-24T07:04:28;100895.78;;;27.31;100.00
33404;BME280;19751;40.274;18.268;2023-06-24T07:06:54;100883.38;;;27.29;100.00
33404;BME280;19751;40.274;18.268;2023-06-24T07:09:19;100879.50;;;27.30;100.00
33404;BME280;19751;40.274;18.268;2023-06-24T07:11:51;100874.47;;;27.32;100.00
33404;BME280;19751;40.274;18.268;2023-06-24T07:14:18;100873.44;;;27.27;100.00
33404;BME280;19751;40.274;18.268;2023-06-24T07:16:45;100875.97;;;27.24;100.00
33404;BME280;19751;40.274;18.268;2023-06-24T07:19:12;100882.13;;;27.21;100.00
33404;BME280;19751;40.274;18.268;2023-06-24T07:21:39;100881.59;;;27.19;100.00
33404;BME280;19751;40.274;18.268;2023-06-24T07:24:05;100877.44;;;27.16;100.00
33404;BME280;19751;40.274;18.268;2023-06-24T07:26:31;100880.84;;;27.13;100.00
33404;BME280;19751;40.274;18.268;2023-06-24T07:29:00;100863.75;;;27.06;100.00
33404;BME280;19751;40.274;18.268;2023-06-24T07:31:27;100863.81;;;27.01;100.00
33404;BME280;19751;40.274;18.268;2023-06-24T07:33:52;100872.19;;;26.96;100.00
33404;BME280;19751;40.274;18.268;2023-06-24T07:36:21;100874.41;;;26.94;100.00
33404;BME280;19751;40.274;18.268;2023-06-24T07:38:48;100862.00;;;26.91;100.00
33404;BME280;19751;40.274;18.268;2023-06-24T07:41:15;100877.75;;;26.91;100.00
33404;BME280;19751;40.274;18.268;2023-06-24T07:43:41;100864.47;;;26.93;100.00
33404;BME280;19751;40.274;18.268;2023-06-24T07:46:07;100873.59;;;26.93;100.00
33404;BME280;19751;40.274;18.268;2023-06-24T07:48:33;100868.56;;;26.95;100.00
33404;BME280;19751;40.274;18.268;2023-06-24T07:51:06;100875.69;;;27.01;100.00
33404;BME280;19751;40.274;18.268;2023-06-24T07:53:37;100880.91;;;27.03;100.00
33404;BME280;19751;40.274;18.268;2023-06-24T07:56:03;100876.75;;;27.06;100.00
33404;BME280;19751;40.274;18.268;2023-06-24T07:58:29;100873.69;;;27.07;100.00
33404;BME280;19751;40.274;18.268;2023-06-24T08:00:54;100874.81;;;27.06;100.00
33404;BME280;19751;40.274;18.268;2023-06-24T08:03:20;100879.81;;;27.04;100.00
33404;BME280;19751;40.274;18.268;2023-06-24T08:05:47;100895.25;;;27.10;100.00
33404;BME280;19751;40.274;18.268;2023-06-24T08:08:15;100895.16;;;27.15;100.00
33404;BME280;19751;40.274;18.268;2023-06-24T08:10:44;100882.13;;;27.21;100.00
33404;BME280;19751;40.274;18.268;2023-06-24T08:13:09;100892.88;;;27.22;100.00
33404;BME280;19751;40.274;18.268;2023-06-24T08:15:37;100891.47;;;27.25;100.00
33404;BME280;19751;40.274;18.268;2023-06-24T08:18:02;100890.56;;;27.30;100.00
33404;BME280;19751;40.274;18.268;2023-06-24T08:20:28;100893.25;;;27.35;100.00
33404;BME280;19751;40.274;18.268;2023-06-24T08:22:55;100886.81;;;27.39;100.00
33404;BME280;19751;40.274;18.268;2023-06-24T08:25:21;100889.22;;;27.46;100.00
33404;BME280;19751;40.274;18.268;2023-06-24T08:27:47;100875.81;;;27.53;100.00
33404;BME280;19751;40.274;18.268;2023-06-24T08:30:14;100878.72;;;27.62;100.00
33404;BME280;19751;40.274;18.268;2023-06-24T08:32:43;100870.06;;;27.68;100.00
33404;BME280;19751;40.274;18.268;2023-06-24T08:35:09;100864.19;;;27.75;100.00
33404;BME280;19751;40.274;18.268;2023-06-24T08:37:39;100870.69;;;27.84;100.00
33404;BME280;19751;40.274;18.268;2023-06-24T08:40:07;100866.91;;;27.94;100.00
33404;BME280;19751;40.274;18.268;2023-06-24T08:42:33;100864.78;;;28.05;100.00
33404;BME280;19751;40.274;18.268;2023-06-24T08:44:59;100866.56;;;28.14;100.00
33404;BME280;19751;40.274;18.268;2023-06-24T08:47:24;100859.81;;;28.20;100.00
33404;BME280;19751;40.274;18.268;2023-06-24T08:50:03;100855.00;;;28.26;100.00
33404;BME280;19751;40.274;18.268;2023-06-24T08:52:37;100860.63;;;28.35;100.00
33404;BME280;19751;40.274;18.268;2023-06-24T08:55:06;100860.28;;;28.41;100.00
33404;BME280;19751;40.274;18.268;2023-06-24T08:57:32;100862.63;;;28.48;100.00
33404;BME280;19751;40.274;18.268;2023-06-24T08:59:58;100866.44;;;28.52;100.00
33404;BME280;19751;40.274;18.268;2023-06-24T09:02:24;100867.47;;;28.56;100.00
33404;BME280;19751;40.274;18.268;2023-06-24T09:04:53;100861.00;;;28.61;100.00
33404;BME280;19751;40.274;18.268;2023-06-24T09:07:28;100857.81;;;28.67;100.00
33404;BME280;19751;40.274;18.268;2023-06-24T09:09:53;100856.69;;;28.68;99.50
33404;BME280;19751;40.274;18.268;2023-06-24T09:12:19;100862.66;;;28.76;99.62
33404;BME280;19751;40.274;18.268;2023-06-24T09:14:49;100864.16;;;28.82;97.22
33404;BME280;19751;40.274;18.268;2023-06-24T09:17:15;100862.41;;;28.86;96.91
33404;BME280;19751;40.274;18.268;2023-06-24T09:19:41;100871.25;;;28.88;95.99
33404;BME280;19751;40.274;18.268;2023-06-24T09:22:09;100866.84;;;28.87;92.46
33404;BME280;19751;40.274;18.268;2023-06-24T09:24:41;100864.78;;;28.92;92.86
33404;BME280;19751;40.274;18.268;2023-06-24T09:27:16;100865.84;;;28.96;92.71
33404;BME280;19751;40.274;18.268;2023-06-24T09:29:46;100866.75;;;29.06;91.73
33404;BME280;19751;40.274;18.268;2023-06-24T09:32:13;100865.19;;;29.13;91.14
33404;BME280;19751;40.274;18.268;2023-06-24T09:34:40;100869.19;;;29.21;91.85
33404;BME280;19751;40.274;18.268;2023-06-24T09:37:06;100862.59;;;29.31;91.08
33404;BME280;19751;40.274;18.268;2023-06-24T09:39:39;100855.66;;;29.42;85.43
33404;BME280;19751;40.274;18.268;2023-06-24T09:42:05;100871.06;;;29.48;80.55
33404;BME280;19751;40.274;18.268;2023-06-24T09:44:32;100869.94;;;29.49;80.81
33404;BME280;19751;40.274;18.268;2023-06-24T09:46:57;100872.06;;;29.52;80.79
33404;BME280;19751;40.274;18.268;2023-06-24T09:49:24;100860.91;;;29.57;78.60
33404;BME280;19751;40.274;18.268;2023-06-24T09:51:56;100856.06;;;29.49;77.29
33404;BME280;19751;40.274;18.268;2023-06-24T09:54:28;100853.78;;;29.51;79.45
33404;BME280;19751;40.274;18.268;2023-06-24T09:57:02;100845.06;;;29.58;80.01
33404;BME280;19751;40.274;18.268;2023-06-24T09:59:31;100843.16;;;29.67;80.01
33404;BME280;19751;40.274;18.268;2023-06-24T10:02:04;100837.06;;;29.79;80.08
33404;BME280;19751;40.274;18.268;2023-06-24T10:04:35;100837.41;;;29.86;80.29
33404;BME280;19751;40.274;18.268;2023-06-24T10:07:02;100833.72;;;29.90;80.36
33404;BME280;19751;40.274;18.268;2023-06-24T10:09:29;100839.25;;;29.90;80.16
33404;BME280;19751;40.274;18.268;2023-06-24T10:11:55;100833.72;;;29.90;80.03
33404;BME280;19751;40.274;18.268;2023-06-24T10:14:21;100836.97;;;29.92;80.24
33404;BME280;19751;40.274;18.268;2023-06-24T10:16:46;100837.66;;;29.98;79.27
33404;BME280;19751;40.274;18.268;2023-06-24T10:19:19;100839.59;;;29.97;79.79
33404;BME280;19751;40.274;18.268;2023-06-24T10:21:52;100831.41;;;29.92;87.43
33404;BME280;19751;40.274;18.268;2023-06-24T10:24:33;100833.63;;;29.82;92.37
33404;BME280;19751;40.274;18.268;2023-06-24T10:27:07;100824.63;;;29.76;93.81
33404;BME280;19751;40.274;18.268;2023-06-24T10:29:39;100825.56;;;29.71;93.04
33404;BME280;19751;40.274;18.268;2023-06-24T10:32:10;100820.44;;;29.65;93.29
33404;BME280;19751;40.274;18.268;2023-06-24T10:34:56;100808.16;;;29.57;94.77
33404;BME280;19751;40.274;18.268;2023-06-24T10:37:24;100814.59;;;29.53;95.68
33404;BME280;19751;40.274;18.268;2023-06-24T10:39:58;100820.50;;;29.51;97.00
33404;BME280;19751;40.274;18.268;2023-06-24T10:42:42;100813.91;;;29.47;97.26
33404;BME280;19751;40.274;18.268;2023-06-24T10:47:47;100809.50;;;29.46;95.44
33404;BME280;19751;40.274;18.268;2023-06-24T10:50:23;100804.25;;;29.44;94.33
33404;BME280;19751;40.274;18.268;2023-06-24T10:52:50;100797.91;;;29.44;93.95
33404;BME280;19751;40.274;18.268;2023-06-24T10:55:22;100799.38;;;29.41;91.78
33404;BME280;19751;40.274;18.268;2023-06-24T10:57:52;100799.16;;;29.38;90.18
33404;BME280;19751;40.274;18.268;2023-06-24T11:00:20;100799.78;;;29.35;89.53
33404;BME280;19751;40.274;18.268;2023-06-24T11:02:47;100788.50;;;29.31;88.00
33404;BME280;19751;40.274;18.268;2023-06-24T11:05:14;100790.97;;;29.33;87.34
33404;BME280;19751;40.274;18.268;2023-06-24T11:07:40;100789.72;;;29.39;86.65
33404;BME280;19751;40.274;18.268;2023-06-24T11:10:11;100784.53;;;29.46;85.04
33404;BME280;19751;40.274;18.268;2023-06-24T11:12:39;100790.59;;;29.48;82.99
33404;BME280;19751;40.274;18.268;2023-06-24T11:15:07;100790.28;;;29.50;81.36
33404;BME280;19751;40.274;18.268;2023-06-24T11:17:34;100780.00;;;29.50;79.52
33404;BME280;19751;40.274;18.268;2023-06-24T11:20:08;100769.91;;;29.54;78.76
33404;BME280;19751;40.274;18.268;2023-06-24T11:22:34;100766.22;;;29.59;77.83
33404;BME280;19751;40.274;18.268;2023-06-24T11:25:00;100766.22;;;29.59;75.85
33404;BME280;19751;40.274;18.268;2023-06-24T11:27:30;100764.13;;;29.64;76.04
33404;BME280;19751;40.274;18.268;2023-06-24T11:29:58;100763.69;;;29.71;74.48
33404;BME280;19751;40.274;18.268;2023-06-24T11:32:34;100758.31;;;29.75;73.10
33404;BME280;19751;40.274;18.268;2023-06-24T11:35:00;100767.31;;;29.80;71.79
33404;BME280;19751;40.274;18.268;2023-06-24T11:37:30;100766.69;;;29.83;70.27
33404;BME280;19751;40.274;18.268;2023-06-24T11:40:06;100756.06;;;29.85;69.63
33404;BME280;19751;40.274;18.268;2023-06-24T11:42:35;100753.47;;;29.89;69.88
33404;BME280;19751;40.274;18.268;2023-06-24T11:45:14;100754.81;;;29.91;68.92
33404;BME280;19751;40.274;18.268;2023-06-24T11:47:44;100759.41;;;29.96;68.86
33404;BME280;19751;40.274;18.268;2023-06-24T11:50:10;100756.00;;;29.99;67.75
33404;BME280;19751;40.274;18.268;2023-06-24T11:55:02;100753.41;;;30.03;67.42
33404;BME280;19751;40.274;18.268;2023-06-24T11:57:47;100765.66;;;30.10;67.28
33404;BME280;19751;40.274;18.268;2023-06-24T12:00:14;100765.84;;;30.14;67.15
33404;BME280;19751;40.274;18.268;2023-06-24T12:02:40;100763.28;;;30.17;66.56
33404;BME280;19751;40.274;18.268;2023-06-24T12:05:06;100766.41;;;30.25;66.35
33404;BME280;19751;40.274;18.268;2023-06-24T12:07:33;100761.88;;;30.29;63.83
33404;BME280;19751;40.274;18.268;2023-06-24T12:09:59;100772.16;;;30.28;63.92
33404;BME280;19751;40.274;18.268;2023-06-24T12:12:25;100768.41;;;30.33;63.20
33404;BME280;19751;40.274;18.268;2023-06-24T12:14:50;100760.41;;;30.40;63.74
33404;BME280;19751;40.274;18.268;2023-06-24T12:17:16;100769.09;;;30.47;62.88
33404;BME280;19751;40.274;18.268;2023-06-24T12:19:41;100770.72;;;30.48;61.93
33404;BME280;19751;40.274;18.268;2023-06-24T12:22:07;100768.94;;;30.52;61.36
33404;BME280;19751;40.274;18.268;2023-06-24T12:24:33;100777.28;;;30.52;61.43
33404;BME280;19751;40.274;18.268;2023-06-24T12:27:00;100768.81;;;30.57;61.23
33404;BME280;19751;40.274;18.268;2023-06-24T12:29:25;100771.09;;;30.64;60.77
33404;BME280;19751;40.274;18.268;2023-06-24T12:31:51;100777.81;;;30.71;61.21
33404;BME280;19751;40.274;18.268;2023-06-24T12:34:17;100783.59;;;30.75;61.32
33404;BME280;19751;40.274;18.268;2023-06-24T12:36:47;100786.53;;;30.79;60.70
33404;BME280;19751;40.274;18.268;2023-06-24T12:39:20;100780.97;;;30.79;60.74
33404;BME280;19751;40.274;18.268;2023-06-24T12:41:51;100791.94;;;30.84;60.46
33404;BME280;19751;40.274;18.268;2023-06-24T12:44:17;100792.91;;;30.79;59.48
33404;BME280;19751;40.274;18.268;2023-06-24T12:46:42;100786.00;;;30.68;59.24
33404;BME280;19751;40.274;18.268;2023-06-24T12:49:11;100791.06;;;30.66;60.40
33404;BME280;19751;40.274;18.268;2023-06-24T12:51:37;100794.66;;;30.66;60.60
33404;BME280;19751;40.274;18.268;2023-06-24T12:54:03;100800.22;;;30.66;57.16